createdAt,value
2018-04-26T00:01:12.495Z,18.00
2018-04-26T00:03:39.564Z,18.00
2018-04-26T00:22:51.736Z,17.90
2018-04-26T00:25:18.826Z,18.00
2018-04-26T00:27:45.879Z,17.90
2018-04-26T00:30:13.019Z,17.90
2018-04-26T00:32:40.068Z,18.00
2018-04-26T00:35:07.094Z,17.90
2018-04-26T00:37:34.106Z,18.00
2018-04-26T00:40:01.141Z,17.90
2018-04-26T00:42:28.202Z,17.90
2018-04-26T00:44:55.250Z,18.00
2018-04-26T00:47:22.293Z,17.90
2018-04-26T00:49:49.370Z,17.90
2018-04-26T00:52:16.425Z,17.90
2018-04-26T00:54:43.472Z,17.90
2018-04-26T00:57:10.537Z,17.90
2018-04-26T00:59:37.597Z,17.90
2018-04-26T01:02:04.608Z,17.90
2018-04-26T01:04:31.646Z,17.90
2018-04-26T01:06:58.677Z,17.90
2018-04-26T01:09:25.676Z,17.90
2018-04-26T01:11:52.706Z,17.90
2018-04-26T01:14:19.719Z,17.90
2018-04-26T01:16:46.731Z,17.90
2018-04-26T01:19:13.739Z,17.90
2018-04-26T01:21:40.736Z,17.90
2018-04-26T01:24:07.820Z,17.90
2018-04-26T01:26:34.920Z,17.90
2018-04-26T01:29:01.977Z,17.90
2018-04-26T01:31:29.089Z,17.90
2018-04-26T01:33:56.091Z,17.90
2018-04-26T01:55:44.516Z,17.90
2018-04-26T01:58:11.573Z,17.80
2018-04-26T02:00:38.631Z,17.90
2018-04-26T02:03:05.696Z,17.90
2018-04-26T02:05:32.782Z,17.90
2018-04-26T02:07:59.833Z,17.90
2018-04-26T02:10:26.857Z,17.90
2018-04-26T02:12:54.044Z,17.90
2018-04-26T02:15:21.101Z,17.90
2018-04-26T02:17:48.163Z,17.90
2018-04-26T02:20:15.171Z,17.90
2018-04-26T02:22:42.215Z,17.80
2018-04-26T02:25:09.253Z,17.80
2018-04-26T02:27:36.353Z,17.80
2018-04-26T02:30:03.417Z,17.90
2018-04-26T02:32:30.463Z,17.90
2018-04-26T02:34:58.293Z,17.80
2018-04-26T02:37:25.349Z,17.90
2018-04-26T02:39:52.399Z,17.90
2018-04-26T02:42:19.531Z,17.90
2018-04-26T02:44:47.384Z,17.90
2018-04-26T02:47:14.413Z,17.90
2018-04-26T02:49:41.502Z,17.90
2018-04-26T02:52:08.515Z,17.90
2018-04-26T02:54:35.521Z,17.90
2018-04-26T02:57:02.531Z,17.80
2018-04-26T02:59:29.572Z,17.80
2018-04-26T03:18:40.905Z,17.80
2018-04-26T03:21:07.904Z,17.80
2018-04-26T03:23:34.960Z,17.80
2018-04-26T03:26:02.051Z,17.80
2018-04-26T03:28:29.148Z,17.80
2018-04-26T03:30:56.264Z,17.80
2018-04-26T03:50:06.884Z,17.80
2018-04-26T03:52:33.926Z,17.80
2018-04-26T03:55:00.976Z,17.80
2018-04-26T03:57:28.921Z,17.80
2018-04-26T04:00:01.833Z,17.80
2018-04-26T04:19:02.562Z,17.80
2018-04-26T04:21:29.624Z,17.80
2018-04-26T04:40:41.157Z,17.70
2018-04-26T04:43:08.212Z,17.80
2018-04-26T04:45:35.253Z,17.70
2018-04-26T04:48:02.298Z,17.70
2018-04-26T04:50:30.482Z,17.80
2018-04-26T04:52:57.519Z,17.70
2018-04-26T04:55:24.529Z,17.70
2018-04-26T04:57:51.587Z,17.70
2018-04-26T05:00:18.793Z,17.70
2018-04-26T05:02:45.852Z,17.70
2018-04-26T05:05:12.934Z,17.70
2018-04-26T05:24:21.145Z,17.70
2018-04-26T05:26:48.255Z,17.70
2018-04-26T05:29:15.275Z,17.70
2018-04-26T05:31:42.349Z,17.70
2018-04-26T05:34:09.395Z,17.60
2018-04-26T05:36:36.443Z,17.70
2018-04-26T05:55:46.757Z,17.70
2018-04-26T05:58:13.782Z,17.70
2018-04-26T06:00:40.859Z,17.70
2018-04-26T06:03:07.868Z,17.60
2018-04-26T06:05:34.911Z,17.70
2018-04-26T06:08:02.024Z,17.60
2018-04-26T06:10:29.031Z,17.60
2018-04-26T06:12:56.044Z,17.60
2018-04-26T06:15:23.082Z,17.70
2018-04-26T06:17:50.138Z,17.60
2018-04-26T06:20:17.372Z,17.60
2018-04-26T06:22:44.425Z,17.60
2018-04-26T06:25:11.506Z,17.60
2018-04-26T06:27:38.604Z,17.60
2018-04-26T06:30:05.608Z,17.60
2018-04-26T06:32:32.647Z,17.60
2018-04-26T06:34:59.691Z,17.70
2018-04-26T06:37:27.299Z,17.60
2018-04-26T06:39:54.296Z,17.60
2018-04-26T06:42:21.352Z,17.60
2018-04-26T06:44:48.307Z,17.60
2018-04-26T06:47:16.088Z,17.60
2018-04-26T06:49:43.094Z,17.60
2018-04-26T06:52:10.172Z,17.60
2018-04-26T06:54:37.211Z,17.60
2018-04-26T06:57:04.820Z,17.60
2018-04-26T06:59:31.883Z,17.60
2018-04-26T07:01:58.978Z,17.60
2018-04-26T07:04:26.031Z,17.60
2018-04-26T07:06:53.062Z,17.60
2018-04-26T07:09:20.098Z,17.60
2018-04-26T07:11:47.176Z,17.60
2018-04-26T07:14:14.227Z,17.60
2018-04-26T07:16:41.286Z,17.60
2018-04-26T07:19:08.350Z,17.60
2018-04-26T07:21:35.416Z,17.60
2018-04-26T07:24:02.474Z,17.60
2018-04-26T07:26:29.518Z,17.60
2018-04-26T07:28:56.556Z,17.60
2018-04-26T07:31:23.650Z,17.60
2018-04-26T07:33:50.752Z,17.60
2018-04-26T07:36:17.854Z,17.50
2018-04-26T07:38:44.893Z,17.60
2018-04-26T07:41:11.939Z,17.60
2018-04-26T07:43:39.002Z,17.50
2018-04-26T07:46:06.032Z,17.50
2018-04-26T07:48:33.032Z,17.50
2018-04-26T07:51:00.038Z,17.60
2018-04-26T07:53:27.045Z,17.50
2018-04-26T07:55:54.056Z,17.50
2018-04-26T07:58:21.060Z,17.50
2018-04-26T08:00:48.914Z,17.50
2018-04-26T08:03:15.920Z,17.50
2018-04-26T08:05:42.980Z,17.50
2018-04-26T08:08:10.793Z,17.50
2018-04-26T08:10:37.852Z,17.50
2018-04-26T08:13:04.894Z,17.50
2018-04-26T08:15:31.932Z,17.50
2018-04-26T08:17:58.977Z,17.50
2018-04-26T08:20:26.021Z,17.50
2018-04-26T08:22:53.112Z,17.50
2018-04-26T08:25:20.144Z,17.50
2018-04-26T08:27:47.154Z,17.50
2018-04-26T08:30:14.290Z,17.50
2018-04-26T08:32:41.452Z,17.50
2018-04-26T08:35:08.504Z,17.50
2018-04-26T08:37:35.574Z,17.50
2018-04-26T08:40:02.627Z,17.50
2018-04-26T08:42:29.665Z,17.50
2018-04-26T08:44:56.714Z,17.50
2018-04-26T08:47:23.760Z,17.50
2018-04-26T08:49:50.854Z,17.50
2018-04-26T09:09:05.993Z,17.50
2018-04-26T09:11:33.033Z,17.40
2018-04-26T09:14:00.096Z,17.50
2018-04-26T09:16:27.215Z,17.40
2018-04-26T09:18:54.275Z,17.40
2018-04-26T09:21:21.669Z,17.40
2018-04-26T09:23:48.699Z,17.40
2018-04-26T09:26:15.751Z,17.40
2018-04-26T09:28:42.802Z,17.40
2018-04-26T09:31:10.451Z,17.40
2018-04-26T09:33:37.493Z,17.40
2018-04-26T09:36:04.510Z,17.40
2018-04-26T09:38:31.563Z,17.40
2018-04-26T09:40:58.606Z,17.40
2018-04-26T09:43:25.669Z,17.40
2018-04-26T09:45:52.755Z,17.40
2018-04-26T09:48:19.863Z,17.40
2018-04-26T09:50:46.899Z,17.40
2018-04-26T09:53:14.715Z,17.50
2018-04-26T09:55:41.747Z,17.40
2018-04-26T09:58:08.785Z,17.40
2018-04-26T10:00:41.435Z,17.40
2018-04-26T10:03:09.511Z,17.40
2018-04-26T10:05:41.560Z,17.40
2018-04-26T10:08:08.590Z,17.40
2018-04-26T10:10:35.609Z,17.40
2018-04-26T10:13:02.652Z,17.40
2018-04-26T10:15:29.716Z,17.40
2018-04-26T10:17:56.810Z,17.40
2018-04-26T10:20:23.883Z,17.40
2018-04-26T10:22:50.984Z,17.40
2018-04-26T10:25:18.125Z,17.40
2018-04-26T10:27:45.176Z,17.40
2018-04-26T10:30:12.238Z,17.40
2018-04-26T10:32:39.292Z,17.40
2018-04-26T10:35:06.325Z,17.40
2018-04-26T10:37:33.369Z,17.40
2018-04-26T10:40:01.180Z,17.40
2018-04-26T10:42:28.232Z,17.40
2018-04-26T10:44:55.286Z,17.40
2018-04-26T10:47:22.334Z,17.40
2018-04-26T10:49:49.391Z,17.40
2018-04-26T10:52:16.401Z,17.40
2018-04-26T10:54:43.489Z,17.40
2018-04-26T10:57:10.570Z,17.40
2018-04-26T10:59:37.711Z,17.40
2018-04-26T11:02:04.751Z,17.40
2018-04-26T11:04:31.821Z,17.40
2018-04-26T11:06:59.305Z,17.40
2018-04-26T11:09:26.343Z,17.40
2018-04-26T11:11:53.381Z,17.40
2018-04-26T11:14:20.407Z,17.40
2018-04-26T11:16:47.435Z,17.40
2018-04-26T11:19:14.486Z,17.40
2018-04-26T11:21:41.624Z,17.40
2018-04-26T11:24:08.672Z,17.40
2018-04-26T11:26:35.735Z,17.40
2018-04-26T11:29:02.765Z,17.40
2018-04-26T11:31:29.800Z,17.40
2018-04-26T11:33:56.879Z,17.40
2018-04-26T11:36:23.918Z,17.40
2018-04-26T11:38:50.963Z,17.40
2018-04-26T11:41:17.973Z,17.40
2018-04-26T11:43:45.013Z,17.40
2018-04-26T11:46:12.047Z,17.40
2018-04-26T11:48:39.081Z,17.40
2018-04-26T11:51:06.127Z,17.40
2018-04-26T11:53:33.197Z,17.40
2018-04-26T11:56:00.246Z,17.40
2018-04-26T11:58:28.060Z,17.40
2018-04-26T12:00:55.104Z,17.40
2018-04-26T12:03:22.148Z,17.40
2018-04-26T12:05:49.181Z,17.40
2018-04-26T12:08:16.243Z,17.40
2018-04-26T12:10:43.282Z,17.40
2018-04-26T12:13:10.360Z,17.40
2018-04-26T12:15:38.137Z,17.40
2018-04-26T12:18:05.180Z,17.40
2018-04-26T12:20:32.205Z,17.40
2018-04-26T12:22:59.269Z,17.40
2018-04-26T12:25:26.297Z,17.40
2018-04-26T12:27:53.366Z,17.40
2018-04-26T12:30:20.388Z,17.40
2018-04-26T12:32:47.424Z,17.40
2018-04-26T12:35:14.499Z,17.40
2018-04-26T12:37:41.558Z,17.40
2018-04-26T12:40:08.593Z,17.40
2018-04-26T12:42:35.617Z,17.40
2018-04-26T13:01:51.470Z,17.40
2018-04-26T13:04:18.527Z,17.40
2018-04-26T13:06:45.593Z,17.40
2018-04-26T13:09:12.647Z,17.40
2018-04-26T13:11:39.829Z,17.40
2018-04-26T13:14:06.895Z,17.40
2018-04-26T13:16:33.951Z,17.40
2018-04-26T13:19:00.992Z,17.40
2018-04-26T13:38:05.942Z,17.40
2018-04-26T13:40:32.952Z,17.40
2018-04-26T13:42:59.987Z,17.50
2018-04-26T13:45:27.015Z,17.50
2018-04-26T13:47:54.064Z,17.50
2018-04-26T13:50:21.107Z,17.50
2018-04-26T13:52:48.185Z,17.50
2018-04-26T13:55:15.235Z,17.50
2018-04-26T13:57:42.279Z,17.40
2018-04-26T14:16:52.774Z,17.40
2018-04-26T14:19:19.875Z,17.40
2018-04-26T14:21:46.963Z,17.40
2018-04-26T14:24:14.014Z,17.40
2018-04-26T14:26:41.154Z,17.50
2018-04-26T14:29:08.244Z,17.50
2018-04-26T14:31:35.270Z,17.50
2018-04-26T14:34:02.351Z,17.50
2018-04-26T14:36:29.435Z,17.50
2018-04-26T14:38:56.600Z,17.50
2018-04-26T15:17:16.745Z,17.40
2018-04-26T15:36:27.026Z,17.50
2018-04-26T16:06:46.123Z,17.50
2018-04-26T16:26:06.279Z,17.50
2018-04-26T16:28:44.880Z,17.50
2018-04-26T16:31:23.759Z,17.50
2018-04-26T16:50:25.316Z,17.50
2018-04-26T17:09:40.097Z,17.50
2018-04-26T17:12:07.209Z,17.40
2018-04-26T17:14:34.292Z,17.40
2018-04-26T17:17:01.343Z,17.50
2018-04-26T17:19:28.411Z,17.50
2018-04-26T17:38:31.124Z,17.50
2018-04-26T17:57:35.004Z,17.50
2018-04-26T18:00:02.053Z,17.50
2018-04-26T18:08:00.895Z,17.40
2018-04-26T18:10:27.987Z,17.50
2018-04-26T18:12:55.909Z,17.50
2018-04-26T18:15:23.097Z,17.50
2018-04-26T18:17:50.158Z,17.50
2018-04-26T18:20:17.208Z,17.50
2018-04-26T18:22:44.322Z,17.40
2018-04-26T18:25:11.543Z,17.50
2018-04-26T18:27:38.484Z,17.40
2018-04-26T18:46:44.704Z,17.50
2018-04-26T18:49:11.703Z,17.50
2018-04-26T18:51:38.707Z,17.50
2018-04-26T18:54:05.877Z,17.50
2018-04-26T19:13:17.017Z,17.40
2018-04-26T19:32:29.137Z,17.40
2018-04-26T19:51:33.098Z,17.40
2018-04-26T19:54:00.137Z,17.40
2018-04-26T19:56:27.143Z,17.40
2018-04-26T20:18:15.688Z,17.40
2018-04-26T20:20:42.876Z,17.40
2018-04-26T20:23:09.907Z,17.40
2018-04-26T20:42:21.322Z,17.40
2018-04-26T20:44:48.328Z,17.40
2018-04-26T20:47:15.374Z,17.40
2018-04-26T20:49:42.402Z,17.40
2018-04-26T20:52:09.446Z,17.40
2018-04-26T20:54:36.481Z,17.40
2018-04-26T20:57:03.524Z,17.30
2018-04-26T20:59:30.572Z,17.40
2018-04-26T21:01:57.623Z,17.30
2018-04-26T21:04:24.681Z,17.40
2018-04-26T21:06:51.710Z,17.30
2018-04-26T21:09:24.302Z,17.40
2018-04-26T21:11:51.327Z,17.30
2018-04-26T21:14:18.387Z,17.40
2018-04-26T21:33:28.371Z,17.30
2018-04-26T21:35:55.459Z,17.30
2018-04-26T21:38:22.503Z,17.40
2018-04-26T21:40:49.555Z,17.30
2018-04-26T21:43:16.600Z,17.30
2018-04-26T21:45:44.405Z,17.30
2018-04-26T21:48:11.440Z,17.30
2018-04-26T21:50:44.146Z,17.30
2018-04-26T21:53:17.036Z,17.30
2018-04-26T21:55:49.704Z,17.30
2018-04-26T21:58:22.356Z,17.30
2018-04-26T22:00:54.985Z,17.30
2018-04-26T22:03:28.599Z,17.30
2018-04-26T22:05:56.263Z,17.30
2018-04-26T22:08:23.874Z,17.30
2018-04-26T22:27:28.779Z,17.30
2018-04-26T22:29:56.007Z,17.30
2018-04-26T22:32:23.044Z,17.30
2018-04-26T22:34:50.083Z,17.30
2018-04-26T22:37:17.115Z,17.30
2018-04-26T22:39:44.204Z,17.30
2018-04-26T22:42:11.260Z,17.30
2018-04-26T22:44:38.318Z,17.30
2018-04-26T22:47:05.349Z,17.30
2018-04-26T22:49:32.399Z,17.30
2018-04-26T22:51:59.429Z,17.30
2018-04-26T22:54:26.470Z,17.20
2018-04-26T22:56:53.496Z,17.20
2018-04-26T22:59:20.543Z,17.20
2018-04-26T23:01:47.580Z,17.30
2018-04-26T23:04:14.674Z,17.20
2018-04-26T23:06:41.675Z,17.20
2018-04-26T23:09:08.731Z,17.20
2018-04-26T23:11:35.794Z,17.30
2018-04-26T23:14:02.816Z,17.20
2018-04-26T23:16:29.960Z,17.20
2018-04-26T23:18:57.045Z,17.20
2018-04-26T23:21:24.034Z,17.20
2018-04-26T23:23:51.058Z,17.20
2018-04-26T23:26:19.050Z,17.20
2018-04-26T23:28:46.118Z,17.20
2018-04-26T23:31:13.114Z,17.20
2018-04-26T23:33:40.182Z,17.20
2018-04-26T23:36:07.219Z,17.20
2018-04-26T23:38:34.264Z,17.20
2018-04-26T23:41:01.346Z,17.20
2018-04-26T23:43:28.392Z,17.20
2018-04-26T23:45:55.425Z,17.20
2018-04-26T23:48:22.468Z,17.20
2018-04-26T23:50:49.550Z,17.20
2018-04-26T23:53:16.572Z,17.20
2018-04-26T23:55:43.630Z,17.20
2018-04-26T23:58:10.687Z,17.20
